Latest Coastal Weather Observations for Norfolk Island

IDN60701

Issued at 4:41 pm EDT Monday 30 March 2015 (issued every 10 minutes, with the page automatically refreshed every 10 minutes)

About coastal observations | Map of coastal stations | Coastal observations for NSW | Marine services | Other Formats
Station Details ID: 200288 Name: NORFOLK ISLAND AERO Lat: -29.04 Lon: 167.94 Height: 111.73 m
Data from the previous 72 hours. | See also: Recent months at Norfolk Island
Date/Time
EDT
Temp

°C
Wind Pressure Rain
since 9am
mm
Weather Cloud Vis
km
Sea
Height
m
Swell
Dir
 
Speed
knots
Gust
knots
hPa Trend Height
m
Period
s
Dir
30/04:30pm 21.9 SE 10 16 1021.3 - 0.0 - Mostly clear 10 - - - -
30/04:00pm 22.8 SSE 11 17 1021.0 - 0.0 - Mostly clear 10 - - - -
30/03:30pm 22.2 SE 10 16 1020.9 - 0.0 - Mostly clear 10 - - - -
30/03:00pm 22.7 SE 10 15 1020.7 - 0.0 - Partly cloudy 10 - - - -
30/02:30pm 23.4 SE 10 15 1020.6 S 0.0 Fine Mostly cloudy 25 - - - -
30/02:00pm 23.2 SSE 13 18 1021.2 - 0.0 - Partly cloudy 10 - - - -
30/01:30pm 23.2 SSE 10 16 1021.4 - 0.0 - Partly cloudy 10 - - - -
30/01:00pm 22.7 SSE 12 17 1021.8 - 0.0 - Partly cloudy 10 - - - -
30/12:30pm 22.3 SE 9 14 1021.9 - 0.0 - Partly cloudy 10 - - - -
30/12:00pm 22.9 ESE 9 14 1022.1 - 0.0 - Mostly clear 10 - - - -
30/11:30am 22.9 ESE 10 14 1021.8 F 0.0 Fine Partly cloudy 30 - - - -
30/11:00am 23.6 SE 11 16 1022.4 - 0.0 - Mostly clear 10 - - - -
30/10:30am 23.4 SSE 10 15 1022.6 - 0.0 - Mostly clear 10 - - - -
30/10:00am 20.7 ESE 5 7 1022.8 - 0.0 - Partly cloudy 10 - - - -
30/09:30am 20.6 S 9 14 1022.8 - 0.0 Showers Partly cloudy 10 - - - -
30/09:00am 22.2 SSE 9 12 1022.8 - 0.0 - Partly cloudy 10 - - - -
30/08:30am 22.4 SE 9 13 1022.4 R 0.0 Distant precip. Partly cloudy 30 - - - -
30/08:00am 22.1 ESE 4 7 1022.5 - 0.0 - Partly cloudy 10 - - - -
30/07:30am 20.7 SE 8 13 1022.3 - 0.0 - Partly cloudy 10 - - - -
30/07:00am 21.4 SSE 8 11 1022.0 - 0.0 - Mostly clear 10 - - - -
30/06:30am 20.1 SSE 6 9 1021.7 - 0.0 - Partly cloudy 10 - - - -
30/06:00am 19.7 S 6 8 1021.2 - 0.0 - Partly cloudy 10 - - - -
30/05:30am 19.6 SSE 6 8 1020.7 - 0.0 - - 10 - - - -
30/05:00am 19.6 S 6 8 1020.9 - 0.0 - - 10 - - - -
30/04:30am 19.3 S 5 7 1020.7 - 0.0 - - 10 - - - -
30/04:00am 19.7 S 7 9 1020.6 - 0.0 - - 10 - - - -
30/03:30am 19.3 S 6 8 1020.3 - 0.0 - Partly cloudy 10 - - - -
30/03:00am 19.6 SE 4 7 1020.4 - 0.0 - Partly cloudy 10 - - - -
30/02:30am 19.8 SE 6 8 1020.1 - 0.0 - Mostly clear 10 - - - -
30/02:00am 19.7 SE 7 9 1020.6 - 0.0 - - 10 - - - -
30/01:30am 19.5 SE 6 8 1020.7 - 0.0 - - 10 - - - -
30/01:00am 20.2 SE 7 12 1020.8 - 0.0 - - 10 - - - -
30/12:30am 19.9 SE 7 10 1021.2 - 0.0 - - 10 - - - -
30/12:00am 20.5 SSE 9 14 1021.4 - 0.0 - Partly cloudy 10 - - - -
 
Date/Time
EDT
Temp

°C
Wind Pressure Rain
since 9am
mm
Weather Cloud Vis
km
Sea
Height
m
Swell
Dir
 
Speed
knots
Gust
knots
hPa Trend Height
m
Period
s
Dir
29/11:30pm 20.5 S 8 11 1021.0 - 0.0 - Partly cloudy 10 - - - -
29/11:00pm 20.5 SSE 8 12 1021.5 - 0.0 - Mostly clear 10 - - - -
29/10:30pm 20.9 SSE 9 15 1021.6 - 0.0 - Mostly clear 10 - - - -
29/10:00pm 20.8 S 8 12 1021.9 - 0.0 - Mostly clear 10 - - - -
29/09:30pm 21.0 S 10 16 1021.9 - 0.0 - Mostly clear 10 - - - -
29/09:00pm 21.0 S 8 15 1022.0 - 0.0 - Mostly clear 10 - - - -
29/08:30pm 21.2 S 10 14 1021.2 R 0.0 Fine Mostly clear 22 - - - -
29/08:00pm 21.5 S 10 17 1021.2 - 0.0 - Mostly clear 10 - - - -
29/07:30pm 21.3 S 8 15 1020.9 - 0.0 - Partly cloudy 10 - - - -
29/07:00pm 21.5 S 10 14 1020.6 - 0.0 - Partly cloudy 10 - - - -
29/06:30pm 21.6 S 9 12 1020.4 - 0.0 - Partly cloudy 10 - - - -
29/06:00pm 21.3 SSE 7 11 1020.2 - 0.0 - Partly cloudy 10 - - - -
29/05:30pm 21.5 S 7 9 1019.6 R 0.0 Fine Partly cloudy 25 - - - -
29/05:00pm 22.3 S 9 15 1019.8 - 0.0 - Mostly clear 10 - - - -
29/04:30pm 22.9 S 9 14 1019.4 - 0.0 - Mostly clear 10 - - - -
29/04:00pm 23.2 S 11 16 1019.1 - 0.0 - Mostly clear 10 - - - -
29/03:30pm 23.2 SSE 11 15 1019.1 - 0.0 - Mostly clear 10 - - - -
29/03:00pm 23.6 SSE 13 16 1019.0 - 0.0 - - 10 - - - -
29/02:30pm 23.7 SSE 13 18 1018.6 R 0.0 Fine Mostly clear 30 - - - -
29/02:00pm 24.0 S 14 18 1018.9 - 0.0 - Mostly clear 10 - - - -
29/01:30pm 24.4 SSE 13 17 1019.0 - 0.0 - - 10 - - - -
29/01:00pm 24.2 SSE 12 16 1019.2 - 0.0 - Mostly clear 10 - - - -
29/12:30pm 23.8 SSE 14 17 1019.4 - 0.0 - Mostly clear 10 - - - -
29/12:00pm 24.1 SSE 12 17 1019.5 - 0.0 - Mostly clear 10 - - - -
29/11:30am 23.9 SSE 11 16 1019.3 R 0.0 Fine Mostly cloudy 30 - - - -
29/11:00am 23.3 SSE 12 17 1019.9 - 0.0 - Partly cloudy 10 - - - -
29/10:30am 23.0 SSE 11 16 1019.9 - 0.0 - Partly cloudy 10 - - - -
29/10:00am 22.5 SSE 9 12 1020.0 - 0.0 - Partly cloudy 10 - - - -
29/09:30am 22.0 SSE 10 13 1020.0 - 0.0 - Partly cloudy 10 - - - -
29/09:00am 21.9 SSE 11 15 1019.9 - 0.0 - Partly cloudy 10 - - - -
29/08:30am 21.7 SSE 10 16 1019.2 R 2.0 Rain Cloudy 13 - - - -
29/08:00am 21.6 S 9 14 1019.5 - 2.0 - Partly cloudy 10 - - - -
29/07:30am 21.6 S 9 14 1019.1 - 2.0 - Partly cloudy 10 - - - -
29/07:00am 21.5 S 11 15 1018.7 - 2.0 - Partly cloudy 10 - - - -
29/06:30am 21.2 SSE 8 11 1018.5 - 2.0 - Cloudy 10 - - - -
29/06:01am 20.9 S 8 11 1018.2 - 2.0 - Partly cloudy 10 - - - -
29/06:00am 21.0 S 8 11 1018.1 - 2.0 - Partly cloudy 10 - - - -
29/05:41am 20.9 S 9 14 1017.9 - 2.0 - Partly cloudy 10 - - - -
29/05:30am 20.7 S 9 14 1017.4 - 2.0 - Cloudy 5 - - - -
29/05:17am 20.8 S 12 17 1017.7 - 1.8 - Partly cloudy 6 - - - -
29/05:00am 21.2 S 9 13 1017.6 - 1.4 - Partly cloudy 10 - - - -
29/04:32am 21.3 S 11 14 1017.2 - 1.4 - Partly cloudy 10 - - - -
29/04:30am 21.4 S 10 14 1017.2 - 1.4 - Cloudy 10 - - - -
29/04:15am 21.5 S 8 11 1017.0 - 1.4 - Partly cloudy 6 - - - -
29/04:00am 21.5 S 9 13 1017.0 - 1.2 - Partly cloudy 4 - - - -
29/03:51am 21.6 S 9 14 1017.0 - 0.8 - Partly cloudy 6 - - - -
29/03:35am 21.9 SW 7 13 1016.9 - 0.0 - Partly cloudy 10 - - - -
29/03:30am 22.1 WSW 6 8 1016.8 - 0.0 - Partly cloudy 10 - - - -
29/03:04am 21.9 WSW 7 9 1016.8 - 0.0 - Partly cloudy 10 - - - -
29/03:00am 21.9 WSW 7 9 1016.8 - 0.0 - Partly cloudy 7 - - - -
29/02:30am 22.4 W 6 8 1016.3 - 0.0 - Cloudy 10 - - - -
29/02:14am 22.3 WSW 6 8 1016.9 - 0.0 - Partly cloudy 10 - - - -
29/02:00am 22.1 W 6 7 1017.0 - 0.0 - Partly cloudy 10 - - - -
29/01:30am 22.1 WSW 7 9 1017.3 - 0.0 - Partly cloudy 10 - - - -
29/01:00am 22.0 WSW 6 7 1017.5 - 0.0 - Partly cloudy 10 - - - -
29/12:30am 22.2 W 7 9 1017.8 - 0.0 - Partly cloudy 10 - - - -
29/12:00am 22.0 WNW 5 7 1018.1 - 0.0 - Partly cloudy 10 - - - -
 
Date/Time
EDT
Temp

°C
Wind Pressure Rain
since 9am
mm
Weather Cloud Vis
km
Sea
Height
m
Swell
Dir
 
Speed
knots
Gust
knots
hPa Trend Height
m
Period
s
Dir
28/11:49pm 21.9 WNW 5 7 1018.2 - 0.0 - Partly cloudy 10 - - - -
28/11:34pm 22.4 WNW 6 9 1018.4 - 0.0 - Partly cloudy 9 - - - -
28/11:30pm 22.5 WNW 6 8 1018.0 - 0.0 - Cloudy 10 - - - -
28/11:00pm 22.4 WNW 6 8 1018.6 - 0.0 - Mostly clear 10 - - - -
28/10:30pm 22.6 WNW 6 7 1018.7 - 0.0 - Mostly clear 10 - - - -
28/10:00pm 22.3 WNW 6 9 1018.8 - 0.0 - Mostly clear 10 - - - -
28/09:30pm 21.9 WNW 5 6 1018.8 - 0.0 - Mostly clear 10 - - - -
28/09:00pm 21.4 W 4 5 1018.9 - 0.0 - Partly cloudy 10 - - - -
28/08:30pm 21.7 W 4 5 1018.3 F 0.0 Fine Mostly cloudy 25 - - - -
28/08:00pm 21.3 W 4 6 1018.5 - 0.0 - Mostly clear 10 - - - -
28/07:30pm 21.8 W 4 5 1018.4 - 0.0 - Mostly clear 10 - - - -
28/07:00pm 21.9 WSW 6 7 1018.3 - 0.0 - Mostly clear 10 - - - -
28/06:30pm 21.7 W 5 6 1018.2 - 0.0 - Mostly clear 10 - - - -
28/06:00pm 22.3 W 7 9 1018.0 - 0.0 - Mostly clear 10 - - - -
28/05:30pm 22.6 WSW 8 10 1017.5 R 0.0 Fine Partly cloudy 25 - - - -
28/05:00pm 23.2 WSW 8 10 1017.9 - 0.0 - Mostly clear 10 - - - -
28/04:30pm 23.7 WSW 8 11 1017.8 - 0.0 - Mostly clear 10 - - - -
28/04:00pm 23.8 W 9 11 1017.6 - 0.0 - Mostly clear 10 - - - -
28/03:30pm 23.5 W 9 12 1017.6 - 0.0 - Mostly clear 10 - - - -
28/03:00pm 24.4 W 8 10 1017.6 - 0.0 - - 10 - - - -
28/02:30pm 24.0 WSW 8 11 1017.1 F 0.0 Fine Mostly clear 35 - - - -
28/02:00pm 24.6 WSW 7 11 1017.9 - 0.0 - Mostly clear 10 - - - -
28/01:30pm 24.2 W 9 11 1018.1 - 0.0 - Mostly clear 10 - - - -
28/01:00pm 24.0 WSW 10 14 1018.3 - 0.0 - Mostly clear 10 - - - -
28/12:30pm 24.2 W 10 13 1018.4 - 0.0 - Mostly clear 10 - - - -
28/12:00pm 24.2 W 9 12 1018.7 - 0.0 - Mostly clear 10 - - - -
28/11:30am 23.9 WSW 10 14 1018.5 F 0.0 Fine Mostly clear 30 - - - -
28/11:00am 23.7 WSW 10 13 1019.2 - 0.0 - Mostly clear 10 - - - -
28/10:30am 23.7 WSW 9 13 1019.3 - 0.0 - Mostly clear 10 - - - -
28/10:00am 23.4 WSW 9 11 1019.5 - 0.0 - Mostly clear 10 - - - -
28/09:30am 23.0 WSW 8 10 1019.5 - 0.0 - Mostly clear 10 - - - -
28/08:30am 22.6 WNW 5 7 1019.0 S 0.0 Fine Mostly clear 30 - - - -
28/08:00am 22.3 WNW 4 5 1019.2 - 0.0 - Mostly clear 10 - - - -
28/07:30am 21.5 WNW 2 5 1019.1 - 0.0 - Mostly clear 10 - - - -
28/07:00am 19.9 W 4 5 1018.7 - 0.0 - Mostly clear 10 - - - -
28/06:30am 19.6 CALM 0 0 1018.6 - 0.0 - - 10 - - - -
28/06:00am 18.6 WSW 3 4 1018.4 - 0.0 - Partly cloudy 10 - - - -
28/05:30am 20.0 SW 6 9 1017.7 - 0.0 - Mostly clear 10 - - - -
28/05:00am 18.8 SW 6 7 1017.9 - 0.0 - Partly cloudy 10 - - - -
28/04:30am 18.6 WSW 5 7 1017.6 - 0.0 - - 10 - - - -
28/04:00am 18.3 WNW 5 6 1017.5 - 0.0 - - 10 - - - -
28/03:30am 18.5 W 4 7 1017.4 - 0.0 - - 10 - - - -
28/03:00am 18.8 W 5 6 1017.5 - 0.0 - - 10 - - - -
28/02:30am 18.8 WSW 6 8 1017.2 - 0.0 - - 10 - - - -
28/02:00am 18.3 W 4 5 1017.9 - 0.0 - - 10 - - - -
28/01:30am 18.6 W 4 7 1018.0 - 0.0 - - 10 - - - -
28/01:00am 19.5 WSW 6 8 1018.4 - 0.0 - - 10 - - - -
28/12:30am 19.4 SW 6 7 1018.5 - 0.0 - - 10 - - - -
28/12:00am 19.8 SW 5 6 1018.8 - 0.0 - - 10 - - - -
 
Date/Time
EDT
Temp

°C
Wind Pressure Rain
since 9am
mm
Weather Cloud Vis
km
Sea
Height
m
Swell
Dir
 
Speed
knots
Gust
knots
hPa Trend Height
m
Period
s
Dir
27/11:30pm 20.1 SSW 5 6 1018.6 - 0.0 - - 10 - - - -
27/11:00pm 20.4 SW 5 7 1019.2 - 0.0 - - 10 - - - -
27/10:30pm 20.6 SSW 5 7 1019.3 - 0.0 - Mostly clear 10 - - - -
27/10:00pm 21.1 SW 7 9 1019.5 - 0.0 - Mostly clear 10 - - - -
27/09:30pm 21.4 SW 7 10 1019.4 - 0.0 - Mostly clear 10 - - - -
27/09:00pm 21.8 SSW 9 14 1019.6 - 0.0 - Mostly clear 10 - - - -
27/08:30pm 22.2 SSW 8 11 1019.1 R 0.0 Distant precip. Partly cloudy 25 - - - -
27/08:00pm 22.3 SSW 9 12 1019.3 - 0.0 Showers Mostly clear 10 - - - -
27/07:30pm 22.1 W 7 9 1019.1 - 0.0 Showers Mostly clear 10 - - - -
27/07:00pm 22.0 W 8 10 1018.9 - 0.0 - Mostly clear 10 - - - -
27/06:30pm 22.1 W 8 10 1018.6 - 0.0 - Mostly clear 10 - - - -
27/06:00pm 21.9 W 7 10 1018.3 - 0.0 - Mostly clear 10 - - - -
27/05:30pm 22.2 W 7 9 1017.7 F 0.0 Fine Mostly clear 40 - - - -
27/05:00pm 23.2 W 8 10 1018.1 - 0.0 - Mostly clear 10 - - - -
27/04:30pm 23.6 WNW 8 11 1018.0 - 0.0 - Mostly clear 10 - - - -

Other Formats:

Comma delimited format used in spreadsheet applications
http://www.bom.gov.au/fwo/IDN60701/IDN60701.94996.axf

JavaScript Object Notation format (JSON) in row-major order
http://www.bom.gov.au/fwo/IDN60701/IDN60701.94996.json